Time;durP1;ratioP1;P1;durP2;ratioP2;P2;SDS_P1;SDS_P2;PMS_P1;PMS_P2;Temp;Humidity;BMP_temperature;BMP_pressure;BME280_temperature;BME280_humidity;BME280_pressure;Samples;Min_cycle;Max_cycle;Signal;HPM_P1;HPM_P2
2022/08/09 00:00:52;;;;;;;6.45;4.25;;;;;;;17.04;65.61;99774.75;5062209;28;20030;-80
2022/08/09 00:03:17;;;;;;;7.78;5.38;;;;;;;17.13;65.63;99789.34;5049147;28;20127;-80
2022/08/09 00:05:43;;;;;;;5.40;4.90;;;;;;;16.96;65.89;99777.97;5062460;28;20033;-80
2022/08/09 00:08:09;;;;;;;6.57;4.45;;;;;;;17.19;65.31;99770.19;5056438;28;20061;-80
2022/08/09 00:10:35;;;;;;;8.10;4.13;;;;;;;17.28;63.74;99783.16;5061376;28;20025;-80
2022/08/09 00:13:00;;;;;;;6.80;4.43;;;;;;;17.05;66.07;99779.91;5069314;28;20034;-80
2022/08/09 00:15:26;;;;;;;6.13;4.47;;;;;;;16.79;66.77;99786.31;5056959;28;20028;-80
2022/08/09 00:17:51;;;;;;;8.00;4.97;;;;;;;17.05;65.50;99765.59;5047520;28;20031;-80
2022/08/09 00:20:17;;;;;;;5.20;4.60;;;;;;;17.04;64.74;99753.16;5047376;28;20113;-80
2022/08/09 00:22:42;;;;;;;6.53;3.63;;;;;;;16.98;65.66;99762.34;5065214;28;20048;-80
2022/08/09 00:25:08;;;;;;;7.70;4.57;;;;;;;17.26;64.57;99775.31;5046235;28;20033;-80
2022/08/09 00:27:34;;;;;;;5.93;4.32;;;;;;;16.80;66.81;99770.94;5070919;28;20056;-80
2022/08/09 00:30:00;;;;;;;6.75;5.13;;;;;;;16.95;66.25;99771.00;5064419;28;20085;-81
2022/08/09 00:32:25;;;;;;;5.57;4.78;;;;;;;17.17;64.82;99779.63;5048707;28;20194;-80
2022/08/09 00:34:51;;;;;;;7.72;4.70;;;;;;;16.81;66.35;99764.47;5067505;28;20103;-80
2022/08/09 00:37:16;;;;;;;6.35;4.45;;;;;;;16.85;66.31;99781.72;5059449;28;21751;-80
2022/08/09 00:39:42;;;;;;;5.70;5.20;;;;;;;16.86;66.45;99764.50;5067525;28;20031;-80
2022/08/09 00:42:07;;;;;;;9.40;5.10;;;;;;;17.08;64.88;99755.06;5056511;28;20041;-80
2022/08/09 00:44:33;;;;;;;5.63;5.00;;;;;;;16.70;66.98;99781.69;5066428;28;20040;-79
2022/08/09 00:46:58;;;;;;;9.63;4.85;;;;;;;16.60;66.40;99773.59;5060104;28;20032;-80
2022/08/09 00:49:24;;;;;;;7.88;5.35;;;;;;;16.59;67.65;99786.25;5061135;28;20037;-80
2022/08/09 00:51:49;;;;;;;6.72;4.43;;;;;;;16.69;67.36;99788.97;5064889;28;20039;-80
2022/08/09 00:54:15;;;;;;;6.93;5.03;;;;;;;16.89;65.38;99748.56;5059677;28;20029;-80
2022/08/09 00:56:40;;;;;;;6.97;4.57;;;;;;;17.42;64.16;99785.06;5078151;28;20036;-80
2022/08/09 00:59:06;;;;;;;6.90;5.35;;;;;;;16.79;66.14;99742.34;5062923;28;20303;-80
2022/08/09 01:01:37;;;;;;;6.68;3.67;;;;;;;17.28;61.95;99766.97;5050318;28;20024;-80
2022/08/09 01:04:25;;;;;;;7.15;5.30;;;;;;;17.35;63.20;99784.50;5060635;28;20037;-80
2022/08/09 01:07:11;;;;;;;7.15;5.65;;;;;;;17.35;65.03;99789.09;5060848;28;20126;-80
2022/08/09 01:09:47;;;;;;;4.97;4.47;;;;;;;17.17;62.24;99776.94;5063434;28;20043;-80
2022/08/09 01:12:32;;;;;;;;;;;;;;;17.58;63.36;99805.56;5058650;28;20031;-80
2022/08/09 01:15:02;;;;;;;7.68;5.28;;;;;;;17.08;65.86;99800.94;5057062;28;20747;-80
2022/08/09 01:17:42;;;;;;;6.68;5.15;;;;;;;16.74;66.70;99791.69;5064931;28;20040;-80
2022/08/09 01:20:14;;;;;;;7.03;5.15;;;;;;;16.63;67.24;99786.53;5076416;28;20028;-80
2022/08/09 01:23:05;;;;;;;5.63;4.60;;;;;;;16.63;66.43;99800.81;5060615;28;20020;-80
2022/08/09 01:25:59;;;;;;;8.70;5.15;;;;;;;16.90;66.04;99792.53;5064996;28;20031;-80
2022/08/09 01:28:25;;;;;;;6.78;5.63;;;;;;;16.96;64.80;99797.69;5083524;28;20024;-80
2022/08/09 01:30:54;;;;;;;7.07;5.07;;;;;;;16.79;66.24;99801.69;5064867;28;20040;-80
2022/08/09 01:33:26;;;;;;;8.18;5.15;;;;;;;16.84;65.33;99799.00;5061286;28;20062;-81
2022/08/09 01:36:07;;;;;;;5.18;4.07;;;;;;;17.14;63.53;99799.88;5061088;28;20020;-80
2022/08/09 01:38:39;;;;;;;7.25;5.20;;;;;;;17.39;61.43;99793.66;5063408;28;20032;-81
2022/08/09 01:41:14;;;;;;;5.80;4.05;;;;;;;17.84;60.95;99799.06;5055555;28;20435;-80
2022/08/09 01:43:44;;;;;;;6.57;5.47;;;;;;;17.57;63.38;99809.38;5061645;28;20383;-80
2022/08/09 01:46:12;;;;;;;4.68;4.15;;;;;;;17.64;59.57;99801.00;5063193;28;20575;-80
2022/08/09 01:48:40;;;;;;;6.57;5.03;;;;;;;17.74;60.19;99773.97;5067846;28;20033;-81
2022/08/09 01:51:06;;;;;;;4.03;3.67;;;;;;;18.01;57.86;99808.78;5047945;28;20121;-80
2022/08/09 01:53:35;;;;;;;7.47;5.25;;;;;;;17.76;61.45;99793.41;5064766;28;20127;-80
2022/08/09 01:56:03;;;;;;;8.13;5.82;;;;;;;16.98;65.28;99806.31;5057667;28;20028;-80
2022/08/09 01:58:31;;;;;;;8.55;5.00;;;;;;;17.02;64.50;99810.09;5064893;28;20032;-80
2022/08/09 02:00:58;;;;;;;7.43;5.22;;;;;;;17.29;62.96;99804.47;5060842;28;20029;-80
2022/08/09 02:03:24;;;;;;;8.35;5.65;;;;;;;17.46;62.92;99790.72;5062150;28;20112;-80
2022/08/09 02:05:53;;;;;;;4.55;4.15;;;;;;;17.81;59.27;99791.53;5061015;28;20390;-80
2022/08/09 02:08:20;;;;;;;6.10;4.80;;;;;;;17.94;58.63;99785.56;5058681;28;20392;-80
2022/08/09 02:10:48;;;;;;;4.20;3.80;;;;;;;18.03;57.42;99780.41;5055295;28;20095;-80
2022/08/09 02:13:16;;;;;;;4.10;3.70;;;;;;;18.01;57.94;99806.09;5058750;28;20115;-80
2022/08/09 02:15:48;;;;;;;4.80;4.30;;;;;;;18.30;56.43;99804.41;5058977;28;20024;-80
2022/08/09 02:18:19;;;;;;;4.65;3.80;;;;;;;18.20;57.14;99801.69;5051303;28;20167;-80
2022/08/09 02:20:50;;;;;;;5.22;3.95;;;;;;;18.19;57.60;99797.41;5063349;28;20031;-80
2022/08/09 02:23:44;;;;;;;7.15;4.20;;;;;;;17.92;59.34;99801.25;5055703;28;20032;-80
2022/08/09 02:26:13;;;;;;;11.07;5.40;;;;;;;17.72;62.03;99800.44;5061419;28;20511;-80
2022/08/09 02:28:43;;;;;;;9.68;5.13;;;;;;;17.42;62.87;99787.75;5062999;28;20393;-80
2022/08/09 02:31:21;;;;;;;6.45;4.10;;;;;;;17.76;58.81;99805.03;5036376;28;20067;-80
2022/08/09 02:33:51;;;;;;;5.38;3.80;;;;;;;17.99;57.67;99800.97;5063193;28;20051;-80
2022/08/09 02:36:19;;;;;;;4.60;3.92;;;;;;;17.47;58.72;99747.28;5059639;28;20371;-80
2022/08/09 02:38:50;;;;;;;5.00;3.97;;;;;;;17.79;58.61;99798.28;5078103;28;20089;-80
2022/08/09 02:41:23;;;;;;;5.25;4.15;;;;;;;17.81;59.61;99799.63;5056777;28;20063;-80
2022/08/09 02:43:51;;;;;;;4.75;3.88;;;;;;;17.99;57.69;99803.66;5060667;28;20050;-80
2022/08/09 02:46:17;;;;;;;4.43;4.03;;;;;;;17.66;58.05;99793.44;5059751;28;20039;-80
2022/08/09 02:48:45;;;;;;;6.78;4.60;;;;;;;17.80;59.74;99797.22;5061859;28;20412;-80
2022/08/09 02:51:13;;;;;;;4.95;4.45;;;;;;;17.31;61.35;99791.53;5066755;28;20078;-80
2022/08/09 02:53:45;;;;;;;3.92;3.63;;;;;;;17.68;58.34;99777.78;5065692;28;20461;-80
2022/08/09 02:56:12;;;;;;;4.20;3.20;;;;;;;17.59;58.63;99774.81;5080410;28;20048;-80
2022/08/09 02:58:38;;;;;;;5.72;4.32;;;;;;;17.36;58.57;99761.84;5062428;28;20027;-80
2022/08/09 03:01:06;;;;;;;4.53;3.80;;;;;;;17.77;57.60;99785.06;5064604;28;20056;-80
2022/08/09 03:03:33;;;;;;;4.43;4.03;;;;;;;18.02;57.18;99810.41;5067508;28;20077;-80
2022/08/09 03:06:01;;;;;;;4.30;3.72;;;;;;;18.13;57.32;99809.31;5067440;28;20040;-80
2022/08/09 03:08:28;;;;;;;4.57;3.90;;;;;;;18.06;57.28;99803.38;5066504;28;20051;-80
2022/08/09 03:10:55;;;;;;;4.05;3.65;;;;;;;18.01;57.30;99804.19;5065871;28;20020;-81
2022/08/09 03:13:22;;;;;;;4.07;3.33;;;;;;;17.95;57.47;99797.97;5048836;28;20111;-80
2022/08/09 03:15:50;;;;;;;7.30;4.90;;;;;;;17.85;61.10;99806.09;5060711;28;20084;-80
2022/08/09 03:18:17;;;;;;;5.30;4.20;;;;;;;17.81;57.84;99805.03;5080456;28;20035;-80
2022/08/09 03:20:43;;;;;;;6.18;5.07;;;;;;;17.34;61.12;99787.47;5065739;28;20032;-80
2022/08/09 03:23:11;;;;;;;4.47;4.07;;;;;;;17.52;58.96;99809.38;5046652;28;20488;-80
2022/08/09 03:25:39;;;;;;;4.68;4.13;;;;;;;17.55;57.95;99787.25;5068541;28;20036;-80
2022/08/09 03:28:05;;;;;;;5.28;3.92;;;;;;;17.86;57.73;99805.03;5065476;28;20059;-80
2022/08/09 03:30:31;;;;;;;5.72;5.13;;;;;;;17.72;58.99;99809.38;5051998;28;20032;-80
2022/08/09 03:32:59;;;;;;;5.22;3.83;;;;;;;17.68;58.11;99800.19;5070374;28;20113;-80
2022/08/09 03:35:24;;;;;;;3.90;3.58;;;;;;;17.72;58.00;99806.66;5029252;28;20033;-80
2022/08/09 03:37:50;;;;;;;5.68;4.00;;;;;;;17.77;58.07;99806.66;5063916;28;20024;-80
2022/08/09 03:40:17;;;;;;;5.60;3.88;;;;;;;17.85;57.36;99826.91;5069630;28;20025;-80
2022/08/09 03:42:43;;;;;;;4.32;3.92;;;;;;;17.68;58.66;99821.78;5068565;28;20111;-81
2022/08/09 03:45:11;;;;;;;4.88;4.00;;;;;;;17.61;57.95;99815.84;5067187;28;20043;-80
2022/08/09 03:47:37;;;;;;;5.20;3.95;;;;;;;17.70;58.37;99829.63;5061632;28;20060;-81
2022/08/09 03:50:07;;;;;;;4.70;4.00;;;;;;;17.68;58.50;99816.38;5064550;28;20083;-80
2022/08/09 03:52:35;;;;;;;7.70;4.80;;;;;;;17.36;60.13;99807.72;5060448;28;20016;-80
2022/08/09 03:55:03;;;;;;;4.68;4.05;;;;;;;17.66;58.10;99832.06;5057454;28;20035;-81
2022/08/09 03:57:29;;;;;;;5.90;4.03;;;;;;;17.60;58.50;99819.66;5062134;28;20409;-80
2022/08/09 03:59:56;;;;;;;4.68;3.90;;;;;;;17.63;58.21;99818.25;5067676;28;20032;-80
2022/08/09 04:02:24;;;;;;;6.50;4.13;;;;;;;17.61;57.66;99807.75;5047848;28;20025;-81
2022/08/09 04:04:50;;;;;;;6.47;4.00;;;;;;;17.61;58.09;99806.94;5060761;28;20032;-81
2022/08/09 04:07:19;;;;;;;7.90;4.40;;;;;;;17.57;58.11;99822.06;5061354;28;20091;-81
2022/08/09 04:09:44;;;;;;;4.57;3.90;;;;;;;17.46;58.26;99804.19;5079634;28;20481;-80
2022/08/09 04:12:14;;;;;;;5.07;4.57;;;;;;;17.31;60.30;99834.69;5045875;28;20028;-80
2022/08/09 04:14:40;;;;;;;7.90;4.25;;;;;;;17.13;61.72;99840.59;5068515;28;20024;-80
2022/08/09 04:17:06;;;;;;;5.50;4.55;;;;;;;17.01;60.90;99807.69;5063731;28;20024;-80
2022/08/09 04:19:32;;;;;;;9.50;5.30;;;;;;;17.22;62.09;99839.81;5050671;28;20032;-80
2022/08/09 04:21:58;;;;;;;5.97;4.43;;;;;;;16.95;61.09;99836.50;5065693;28;20468;-80
2022/08/09 04:24:26;;;;;;;6.45;4.53;;;;;;;17.04;61.57;99848.41;5048365;28;20029;-80
2022/08/09 04:26:53;;;;;;;8.02;4.47;;;;;;;17.11;61.34;99837.34;5061057;28;20111;-80
2022/08/09 04:29:19;;;;;;;9.27;4.22;;;;;;;17.09;61.31;99843.03;5070344;28;20120;-80
2022/08/09 04:31:44;;;;;;;5.93;3.97;;;;;;;17.22;60.36;99847.91;5067568;28;20103;-81
2022/08/09 04:34:10;;;;;;;7.28;4.45;;;;;;;17.13;62.10;99854.09;5059954;28;20033;-80
2022/08/09 04:36:36;;;;;;;8.88;5.18;;;;;;;17.07;63.92;99852.47;5059478;28;20040;-80
2022/08/09 04:39:04;;;;;;;5.68;4.43;;;;;;;16.36;66.13;99844.06;5066476;28;20045;-80
2022/08/09 04:41:31;;;;;;;7.50;4.35;;;;;;;16.31;65.82;99860.22;5049241;28;22037;-80
2022/08/09 04:43:56;;;;;;;4.47;4.07;;;;;;;16.45;64.07;99850.56;5063475;28;20052;-80
2022/08/09 04:46:22;;;;;;;5.97;5.05;;;;;;;16.64;66.02;99855.56;5063634;28;20055;-80
2022/08/09 04:48:48;;;;;;;7.22;5.28;;;;;;;16.40;66.74;99857.84;5064857;28;20054;-80
2022/08/09 04:51:14;;;;;;;10.38;5.30;;;;;;;16.84;65.27;99864.50;5066088;28;20322;-80
2022/08/09 04:53:39;;;;;;;8.90;6.22;;;;;;;16.04;68.08;99820.97;5067660;28;20028;-80
2022/08/09 04:56:06;;;;;;;7.45;5.80;;;;;;;16.13;68.02;99841.78;5044431;28;20484;-80
2022/08/09 04:58:32;;;;;;;7.07;5.65;;;;;;;16.34;67.17;99866.94;5064262;28;20124;-80
2022/08/09 05:01:00;;;;;;;8.57;6.15;;;;;;;15.87;69.53;99853.44;5064900;28;20400;-80
2022/08/09 05:03:26;;;;;;;7.47;5.85;;;;;;;16.23;68.50;99857.16;5063630;28;20031;-80
2022/08/09 05:05:52;;;;;;;7.22;6.07;;;;;;;16.11;68.89;99854.69;5066360;28;20032;-80
2022/08/09 05:08:18;;;;;;;10.27;6.65;;;;;;;15.94;69.90;99835.19;5060458;28;20621;-80
2022/08/09 05:10:43;;;;;;;10.57;5.38;;;;;;;16.20;67.62;99863.09;5065814;28;20047;-80
2022/08/09 05:13:09;;;;;;;6.60;5.90;;;;;;;16.04;69.60;99864.88;5063819;28;20027;-80
2022/08/09 05:15:35;;;;;;;6.57;4.72;;;;;;;16.47;65.50;99880.75;5071334;28;20024;-80
2022/08/09 05:18:01;;;;;;;7.97;5.38;;;;;;;16.23;67.53;99865.25;5061738;28;20042;-80
2022/08/09 05:20:27;;;;;;;6.95;4.35;;;;;;;16.66;67.04;99870.38;5068126;28;20055;-80
2022/08/09 05:22:53;;;;;;;9.52;6.70;;;;;;;15.63;72.21;99884.47;5064774;28;20035;-80
2022/08/09 05:25:19;;;;;;;11.27;6.20;;;;;;;15.85;70.58;99881.69;5065474;28;20033;-80
2022/08/09 05:27:45;;;;;;;7.30;4.32;;;;;;;16.67;65.34;99879.25;5067655;28;20032;-80
2022/08/09 05:30:11;;;;;;;9.98;6.57;;;;;;;15.91;69.97;99883.34;5080961;28;20510;-80
2022/08/09 05:32:37;;;;;;;9.23;6.13;;;;;;;15.44;71.66;99824.03;5022327;28;20435;-80
2022/08/09 05:35:04;;;;;;;8.10;6.45;;;;;;;15.85;72.05;99893.28;5066980;28;20028;-80
2022/08/09 05:37:29;;;;;;;8.02;4.85;;;;;;;16.33;68.31;99887.69;5051769;28;20031;-80
2022/08/09 05:39:55;;;;;;;9.30;6.40;;;;;;;15.69;71.93;99904.97;5067298;28;20033;-80
2022/08/09 05:42:21;;;;;;;8.55;5.53;;;;;;;16.56;69.56;99893.75;5052076;28;20029;-80
2022/08/09 05:44:52;;;;;;;14.70;6.65;;;;;;;16.68;69.64;99902.47;5057246;28;20121;-80
2022/08/09 05:47:19;;;;;;;7.57;6.85;;;;;;;16.48;69.11;99887.78;5065101;28;20042;-80
2022/08/09 05:49:45;;;;;;;5.22;4.75;;;;;;;16.55;68.97;99909.16;5064329;28;20109;-80
2022/08/09 05:52:10;;;;;;;9.82;6.03;;;;;;;16.00;70.42;99898.78;5068458;28;20063;-79
2022/08/09 05:54:36;;;;;;;10.07;6.82;;;;;;;16.01;72.59;99915.75;5052640;28;20040;-80
2022/08/09 05:57:03;;;;;;;5.53;4.78;;;;;;;16.39;67.77;99889.34;5050095;28;20446;-80
2022/08/09 05:59:29;;;;;;;12.65;6.38;;;;;;;16.42;70.06;99896.09;5046384;28;20056;-80
2022/08/09 06:01:54;;;;;;;10.05;6.28;;;;;;;16.36;70.29;99908.72;5048338;28;20079;-80
2022/08/09 06:04:20;;;;;;;8.70;5.72;;;;;;;16.43;69.76;99901.22;5078037;28;20062;-80
2022/08/09 06:06:45;;;;;;;12.63;6.80;;;;;;;16.24;70.97;99902.72;5066315;28;20036;-80
2022/08/09 06:09:10;;;;;;;8.25;6.50;;;;;;;16.15;71.67;99911.53;5065780;28;20086;-79
2022/08/09 06:11:36;;;;;;;9.48;6.93;;;;;;;16.18;71.08;99906.47;5067481;28;20036;-79
2022/08/09 06:14:02;;;;;;;10.30;4.93;;;;;;;16.57;66.96;99885.44;5044956;28;20040;-79
2022/08/09 06:16:28;;;;;;;9.95;7.15;;;;;;;16.64;69.27;99923.75;5049216;28;20025;-80
2022/08/09 06:18:53;;;;;;;9.52;6.32;;;;;;;16.09;71.67;99886.47;5050125;28;20024;-80
2022/08/09 06:21:19;;;;;;;8.63;6.60;;;;;;;15.71;72.83;99902.84;5064466;28;20033;-80
2022/08/09 06:23:46;;;;;;;9.30;6.78;;;;;;;15.86;73.01;99916.44;5070383;28;20373;-80
2022/08/09 06:26:12;;;;;;;11.98;7.88;;;;;;;16.06;72.61;99921.16;5048375;28;20032;-80
2022/08/09 06:28:37;;;;;;;11.85;6.85;;;;;;;15.65;72.64;99882.34;5076819;28;20036;-80
2022/08/09 06:31:02;;;;;;;11.70;7.63;;;;;;;15.75;73.43;99928.16;5067420;28;20042;-80
2022/08/09 06:33:28;;;;;;;13.75;6.45;;;;;;;16.29;72.35;99927.00;5052510;28;20085;-80
2022/08/09 06:35:53;;;;;;;7.80;6.72;;;;;;;16.24;72.30;99929.66;5066447;28;20032;-79
2022/08/09 06:38:19;;;;;;;7.20;5.95;;;;;;;16.36;70.84;99918.69;5060654;28;20498;-80
2022/08/09 06:40:44;;;;;;;11.85;6.65;;;;;;;16.65;70.78;99924.56;5049538;28;20573;-79
2022/08/09 06:43:12;;;;;;;9.13;6.88;;;;;;;16.61;71.66;99928.84;5061854;28;20048;-80
2022/08/09 06:45:38;;;;;;;17.30;7.13;;;;;;;16.40;72.00;99933.28;5053064;28;20039;-79
2022/08/09 06:48:03;;;;;;;7.45;6.60;;;;;;;16.46;71.41;99910.69;5066408;28;20024;-80
2022/08/09 06:50:30;;;;;;;6.65;5.93;;;;;;;16.91;70.48;99934.38;5048807;28;20392;-80
2022/08/09 06:52:57;;;;;;;9.23;7.15;;;;;;;17.05;70.14;99919.34;5063177;28;20040;-80
2022/08/09 06:55:27;;;;;;;8.55;5.47;;;;;;;17.18;68.68;99932.34;5046725;28;20032;-80
2022/08/09 06:57:52;;;;;;;7.32;6.20;;;;;;;17.00;70.21;99912.06;5042512;28;20051;-80
2022/08/09 07:00:17;;;;;;;6.90;5.50;;;;;;;17.52;66.47;99930.84;5063305;28;20029;-80
2022/08/09 07:02:43;;;;;;;14.35;7.30;;;;;;;17.39;68.86;99920.53;5049460;28;20097;-80
2022/08/09 07:05:09;;;;;;;11.77;6.78;;;;;;;17.39;68.77;99919.72;5051229;28;20035;-80
2022/08/09 07:07:34;;;;;;;14.07;6.70;;;;;;;17.44;70.28;99927.81;5058527;28;20032;-80
2022/08/09 07:09:59;;;;;;;7.65;4.75;;;;;;;17.64;67.57;99909.00;5052506;28;20047;-80
2022/08/09 07:12:25;;;;;;;11.00;6.72;;;;;;;17.50;67.92;99919.50;5046548;28;20108;-80
2022/08/09 07:14:50;;;;;;;9.55;5.95;;;;;;;17.32;69.65;99914.56;5044293;28;20025;-79
2022/08/09 07:17:16;;;;;;;6.97;6.25;;;;;;;16.96;70.05;99937.13;5028280;28;20040;-80
2022/08/09 07:19:41;;;;;;;9.45;5.53;;;;;;;17.01;68.96;99896.69;5045091;28;20035;-80
2022/08/09 07:22:07;;;;;;;11.25;6.72;;;;;;;16.87;70.48;99920.63;5061351;28;20443;-80
2022/08/09 07:24:32;;;;;;;7.13;6.15;;;;;;;17.52;69.89;99938.94;5058037;28;20028;-80
2022/08/09 07:26:59;;;;;;;9.82;6.10;;;;;;;17.38;70.35;99937.81;5058266;28;20089;-80
2022/08/09 07:29:27;;;;;;;10.95;6.40;;;;;;;17.12;71.02;99931.50;5068189;28;20473;-79
2022/08/09 07:31:53;;;;;;;10.88;6.13;;;;;;;17.59;68.65;99942.19;5058633;28;20503;-79
2022/08/09 07:34:19;;;;;;;12.25;6.78;;;;;;;17.43;70.04;99935.09;5058274;28;20039;-79
2022/08/09 07:36:44;;;;;;;5.50;4.22;;;;;;;18.59;64.40;99927.88;5039017;28;20037;-80
2022/08/09 07:39:10;;;;;;;8.93;5.85;;;;;;;18.55;66.81;99928.69;5057440;28;20793;-80
2022/08/09 07:41:35;;;;;;;11.50;6.82;;;;;;;17.93;67.79;99935.22;5043976;28;20391;-80
2022/08/09 07:44:01;;;;;;;12.18;6.78;;;;;;;17.96;67.60;99928.47;5056728;28;20068;-80
2022/08/09 07:46:26;;;;;;;8.48;6.28;;;;;;;17.65;68.18;99921.41;5026277;28;20052;-80
2022/08/09 07:48:52;;;;;;;6.30;4.22;;;;;;;18.16;66.31;99911.44;5059839;28;20060;-80
2022/08/09 07:51:18;;;;;;;9.68;5.90;;;;;;;18.63;66.30;99899.19;5041561;28;20129;-80
2022/08/09 07:53:45;;;;;;;8.23;5.40;;;;;;;18.41;66.55;99901.38;5056313;28;20024;-80
2022/08/09 07:56:10;;;;;;;6.40;5.20;;;;;;;18.72;67.39;99928.41;5058726;28;20032;-80
2022/08/09 07:58:35;;;;;;;9.27;5.40;;;;;;;18.79;66.07;99926.19;5060363;28;21020;-80
2022/08/09 08:01:01;;;;;;;8.05;4.85;;;;;;;18.88;65.75;99927.25;5058327;28;20032;-80
2022/08/09 08:03:26;;;;;;;8.85;5.10;;;;;;;18.95;64.84;99906.13;5053541;28;20059;-80
2022/08/09 08:05:52;;;;;;;8.60;5.90;;;;;;;18.99;64.41;99916.13;5058277;28;20384;-80
2022/08/09 08:08:18;;;;;;;10.50;5.72;;;;;;;19.16;64.23;99910.34;5058018;28;20024;-80
2022/08/09 08:10:44;;;;;;;8.07;5.57;;;;;;;19.03;64.46;99928.00;5058778;28;20503;-81
2022/08/09 08:13:09;;;;;;;8.32;5.25;;;;;;;18.98;64.72;99903.66;5060739;28;20120;-80
2022/08/09 08:15:35;;;;;;;10.13;4.70;;;;;;;19.64;62.62;99917.69;5041552;28;20020;-80
2022/08/09 08:18:00;;;;;;;6.10;4.63;;;;;;;20.44;60.44;99924.38;5057227;28;20116;-80
2022/08/09 08:20:27;;;;;;;7.43;5.03;;;;;;;20.08;62.73;99934.69;5054591;28;20587;-80
2022/08/09 08:22:53;;;;;;;8.95;5.10;;;;;;;19.34;62.35;99898.88;5056020;28;20036;-80
2022/08/09 08:25:18;;;;;;;7.30;5.82;;;;;;;19.29;64.04;99932.22;5059216;28;20056;-80
2022/08/09 08:27:44;;;;;;;6.03;4.50;;;;;;;19.99;61.97;99916.59;5057633;28;20108;-80
2022/08/09 08:30:12;;;;;;;8.27;5.35;;;;;;;19.70;62.52;99910.34;5025456;28;20036;-80
2022/08/09 08:32:38;;;;;;;7.82;5.40;;;;;;;19.42;63.16;99915.38;5058485;28;20074;-80
2022/08/09 08:35:05;;;;;;;7.32;5.25;;;;;;;19.98;62.17;99926.66;5057379;28;20052;-80
2022/08/09 08:37:30;;;;;;;6.97;4.82;;;;;;;19.88;62.31;99896.09;5059555;28;20113;-80
2022/08/09 08:39:56;;;;;;;11.43;5.32;;;;;;;20.32;61.93;99925.84;5057516;28;20282;-80
2022/08/09 08:42:22;;;;;;;6.90;5.22;;;;;;;20.06;62.15;99915.19;5040721;28;20033;-80
2022/08/09 08:44:58;;;;;;;7.97;5.03;;;;;;;20.32;60.86;99921.22;5072013;28;20029;-80
2022/08/09 08:47:25;;;;;;;10.32;5.53;;;;;;;20.34;61.38;99923.63;5057730;28;20056;-80
2022/08/09 08:49:52;;;;;;;8.57;5.18;;;;;;;20.38;61.07;99917.34;5054693;28;20038;-80
2022/08/09 08:52:20;;;;;;;5.45;4.72;;;;;;;20.73;60.14;99918.88;5025823;28;20052;-80
2022/08/09 08:54:46;;;;;;;9.40;4.82;;;;;;;21.20;60.47;99909.94;5056882;28;20017;-80
2022/08/09 08:57:11;;;;;;;10.90;5.40;;;;;;;20.16;60.13;99898.81;5055244;28;20641;-80
2022/08/09 08:59:37;;;;;;;8.40;4.18;;;;;;;20.54;61.25;99918.84;5055077;28;20110;-80
2022/08/09 09:02:03;;;;;;;10.55;5.00;;;;;;;20.56;59.90;99904.97;5044782;28;20041;-80
2022/08/09 09:04:31;;;;;;;7.53;4.60;;;;;;;21.15;59.24;99918.13;5057590;28;20102;-79
2022/08/09 09:07:01;;;;;;;6.80;5.00;;;;;;;21.81;57.81;99921.53;5058451;28;20044;-80
2022/08/09 09:09:29;;;;;;;9.93;4.55;;;;;;;21.29;58.50;99922.59;5057220;28;20032;-80
2022/08/09 09:11:57;;;;;;;6.57;4.45;;;;;;;21.55;58.24;99912.97;5056434;28;20028;-80
2022/08/09 09:14:25;;;;;;;6.25;4.47;;;;;;;21.92;57.70;99912.16;5038969;28;20115;-80
2022/08/09 09:16:51;;;;;;;7.53;4.82;;;;;;;21.43;57.32;99907.16;5058431;28;20503;-80
2022/08/09 09:19:20;;;;;;;8.07;5.07;;;;;;;21.49;56.63;99918.78;5057539;28;20029;-80
2022/08/09 09:22:05;;;;;;;6.47;4.40;;;;;;;21.89;56.82;99911.91;5057918;28;20377;-80
2022/08/09 09:24:42;;;;;;;5.30;4.03;;;;;;;22.04;56.58;99915.19;5043188;28;20058;-80
2022/08/09 09:27:09;;;;;;;10.13;5.13;;;;;;;22.08;55.11;99915.44;5054556;28;20059;-80
2022/08/09 09:29:43;;;;;;;10.32;4.85;;;;;;;21.79;54.96;99907.44;5054564;28;20093;-80
2022/08/09 09:32:09;;;;;;;5.72;4.70;;;;;;;21.53;55.16;99901.59;5043119;28;20044;-80
2022/08/09 09:34:35;;;;;;;6.15;4.32;;;;;;;21.93;55.81;99911.03;5056399;28;20030;-80
2022/08/09 09:37:04;;;;;;;5.45;4.32;;;;;;;21.86;55.49;99905.19;5057027;28;20035;-80
2022/08/09 09:39:29;;;;;;;8.77;4.28;;;;;;;22.19;54.54;99914.94;5041809;28;20051;-80
2022/08/09 09:41:56;;;;;;;10.07;4.07;;;;;;;22.96;53.88;99891.44;5055625;28;20476;-80
2022/08/09 09:44:28;;;;;;;7.28;4.68;;;;;;;22.61;53.52;99907.69;5056511;28;20072;-80
2022/08/09 09:47:04;;;;;;;5.22;3.97;;;;;;;23.01;53.46;99898.72;5055761;28;20504;-80
2022/08/09 09:49:30;;;;;;;5.72;4.18;;;;;;;23.07;53.38;99913.81;5048686;28;20115;-80
2022/08/09 09:52:07;;;;;;;8.20;3.97;;;;;;;22.77;52.72;99900.84;5054924;28;20024;-80
2022/08/09 09:54:45;;;;;;;5.65;4.32;;;;;;;23.60;52.18;99916.78;5053023;28;20543;-81
2022/08/09 09:57:22;;;;;;;5.57;4.85;;;;;;;22.88;52.36;99891.34;5054654;28;20064;-80
2022/08/09 09:59:50;;;;;;;15.45;4.72;;;;;;;22.99;52.28;99909.91;5054909;28;20115;-80
2022/08/09 10:02:17;;;;;;;7.80;4.30;;;;;;;23.37;50.94;99906.97;5054395;28;20991;-80
2022/08/09 10:04:44;;;;;;;8.55;4.35;;;;;;;24.15;50.61;99911.94;5057521;28;20052;-80
2022/08/09 10:07:26;;;;;;;4.90;4.45;;;;;;;23.83;50.10;99908.31;5057389;28;20028;-81
2022/08/09 10:09:54;;;;;;;7.78;4.80;;;;;;;23.15;50.89;99899.50;5073759;28;20037;-80
2022/08/09 10:12:35;;;;;;;4.85;4.32;;;;;;;23.24;50.71;99900.38;5040376;28;20232;-80
2022/08/09 10:15:06;;;;;;;4.90;4.10;;;;;;;24.00;50.95;99904.09;5055471;28;20025;-80
2022/08/09 10:17:34;;;;;;;7.03;4.65;;;;;;;23.62;49.41;99890.81;5038815;28;20040;-81
2022/08/09 10:20:02;;;;;;;14.13;4.40;;;;;;;24.10;49.87;99910.13;5054554;28;20059;-81
2022/08/09 10:22:34;;;;;;;8.30;4.78;;;;;;;23.82;50.69;99881.34;5025313;28;20433;-80
2022/08/09 10:25:04;;;;;;;11.25;4.30;;;;;;;23.82;50.49;99898.53;5070385;28;20025;-80
2022/08/09 10:27:31;;;;;;;5.72;3.50;;;;;;;24.54;50.29;99899.16;5053800;28;20468;-81
2022/08/09 10:30:00;;;;;;;8.45;4.22;;;;;;;24.40;48.36;99890.22;5060523;28;20021;-81
2022/08/09 10:32:26;;;;;;;5.00;4.22;;;;;;;24.36;49.24;99883.78;5059750;28;20049;-80
2022/08/09 10:34:54;;;;;;;6.40;4.00;;;;;;;23.72;48.00;99879.66;5060432;28;20028;-80
2022/08/09 10:37:20;;;;;;;6.10;3.83;;;;;;;23.80;48.70;99892.59;5062489;28;20480;-80
2022/08/09 10:39:46;;;;;;;8.52;4.47;;;;;;;23.99;48.88;99878.75;5060627;28;20494;-80
2022/08/09 10:42:14;;;;;;;8.07;4.13;;;;;;;24.55;48.97;99876.16;5046125;28;20029;-80
2022/08/09 10:44:42;;;;;;;7.93;4.57;;;;;;;24.51;48.15;99866.19;5061613;28;20083;-81
2022/08/09 10:47:28;;;;;;;8.30;4.38;;;;;;;24.60;48.45;99891.59;5052072;28;20135;-80
2022/08/09 10:50:17;;;;;;;5.18;3.53;;;;;;;25.34;48.30;99886.22;5054262;28;20029;-81
2022/08/09 10:52:55;;;;;;;7.93;3.88;;;;;;;25.30;46.27;99889.56;5054555;28;20059;-80
2022/08/09 10:55:26;;;;;;;5.90;4.22;;;;;;;25.02;47.44;99896.44;5053979;28;20051;-80
2022/08/09 10:57:52;;;;;;;9.63;5.05;;;;;;;24.68;45.94;99890.84;5057724;28;20119;-81
2022/08/09 11:00:30;;;;;;;5.82;3.65;;;;;;;25.59;44.47;99886.25;5057523;28;20037;-80
2022/08/09 11:02:56;;;;;;;10.27;4.32;;;;;;;25.97;44.10;99887.16;5060154;28;20137;-81
2022/08/09 11:05:22;;;;;;;5.80;4.25;;;;;;;25.68;44.55;99892.53;5056489;28;20033;-81
2022/08/09 11:07:49;;;;;;;6.90;3.88;;;;;;;25.55;44.88;99884.47;5055902;28;20024;-81
2022/08/09 11:10:16;;;;;;;7.05;4.63;;;;;;;25.06;44.95;99869.28;5059036;28;20150;-81
2022/08/09 11:13:13;;;;;;;4.85;3.72;;;;;;;25.90;44.27;99894.28;5069447;28;20036;-81
2022/08/09 11:15:39;;;;;;;7.50;4.20;;;;;;;25.91;44.40;99879.44;5054471;28;20051;-81
2022/08/09 11:18:04;;;;;;;5.30;3.67;;;;;;;26.89;43.82;99879.34;5059283;28;20029;-81
2022/08/09 11:20:43;;;;;;;5.65;3.75;;;;;;;25.53;43.89;99873.06;5042240;28;20032;-81
2022/08/09 11:23:08;;;;;;;6.15;4.22;;;;;;;25.79;44.17;99865.66;5059625;28;20029;-81
2022/08/09 11:25:36;;;;;;;7.55;3.92;;;;;;;26.10;43.55;99873.66;5058348;28;20029;-81
2022/08/09 11:28:51;;;;;;;5.60;4.18;;;;;;;25.34;44.28;99878.00;5055526;28;20032;-81
2022/08/09 11:31:39;;;;;;;10.70;3.80;;;;;;;25.45;43.65;99887.50;5052294;28;20036;-81
2022/08/09 11:34:14;;;;;;;6.40;3.40;;;;;;;26.11;43.42;99881.53;5075589;28;20502;-82
2022/08/09 11:36:41;;;;;;;4.05;3.47;;;;;;;27.59;41.60;99854.66;5058052;28;20024;-81